sensor_id;sensor_type;location;lat;lon;timestamp;P1;durP1;ratioP1;P2;durP2;ratioP2
34984;SDS011;21190;58.750;17.004;2023-12-20T00:00:36;13.88;;;2.05;;
34984;SDS011;21190;58.750;17.004;2023-12-20T00:03:06;13.38;;;1.60;;
34984;SDS011;21190;58.750;17.004;2023-12-20T00:05:34;12.90;;;1.90;;
34984;SDS011;21190;58.750;17.004;2023-12-20T00:08:02;21.65;;;3.25;;
34984;SDS011;21190;58.750;17.004;2023-12-20T00:10:31;13.82;;;2.00;;
34984;SDS011;21190;58.750;17.004;2023-12-20T00:12:59;10.50;;;1.85;;
34984;SDS011;21190;58.750;17.004;2023-12-20T00:15:26;12.15;;;1.92;;
34984;SDS011;21190;58.750;17.004;2023-12-20T00:17:53;17.60;;;2.20;;
34984;SDS011;21190;58.750;17.004;2023-12-20T00:20:20;10.65;;;2.10;;
34984;SDS011;21190;58.750;17.004;2023-12-20T00:22:47;18.58;;;2.17;;
34984;SDS011;21190;58.750;17.004;2023-12-20T00:25:14;14.60;;;2.70;;
34984;SDS011;21190;58.750;17.004;2023-12-20T00:27:42;9.00;;;2.63;;
34984;SDS011;21190;58.750;17.004;2023-12-20T00:30:10;21.52;;;3.33;;
34984;SDS011;21190;58.750;17.004;2023-12-20T00:32:38;17.38;;;3.42;;
34984;SDS011;21190;58.750;17.004;2023-12-20T00:35:05;17.85;;;3.25;;
34984;SDS011;21190;58.750;17.004;2023-12-20T00:37:32;12.05;;;2.63;;
34984;SDS011;21190;58.750;17.004;2023-12-20T00:40:00;20.13;;;3.28;;
34984;SDS011;21190;58.750;17.004;2023-12-20T00:42:27;14.93;;;2.90;;
34984;SDS011;21190;58.750;17.004;2023-12-20T00:44:54;19.70;;;3.00;;
34984;SDS011;21190;58.750;17.004;2023-12-20T00:47:21;7.80;;;2.83;;
34984;SDS011;21190;58.750;17.004;2023-12-20T00:49:48;14.60;;;2.95;;
34984;SDS011;21190;58.750;17.004;2023-12-20T00:52:15;11.25;;;2.35;;
34984;SDS011;21190;58.750;17.004;2023-12-20T00:54:44;12.93;;;2.00;;
34984;SDS011;21190;58.750;17.004;2023-12-20T00:57:11;16.30;;;2.70;;
34984;SDS011;21190;58.750;17.004;2023-12-20T00:59:38;13.90;;;2.53;;
34984;SDS011;21190;58.750;17.004;2023-12-20T01:02:05;15.15;;;2.10;;
34984;SDS011;21190;58.750;17.004;2023-12-20T01:04:32;6.53;;;1.70;;
34984;SDS011;21190;58.750;17.004;2023-12-20T01:07:00;13.90;;;1.95;;
34984;SDS011;21190;58.750;17.004;2023-12-20T01:09:27;7.40;;;1.85;;
34984;SDS011;21190;58.750;17.004;2023-12-20T01:11:54;8.40;;;1.77;;
34984;SDS011;21190;58.750;17.004;2023-12-20T01:14:21;8.38;;;1.20;;
34984;SDS011;21190;58.750;17.004;2023-12-20T01:16:48;18.40;;;1.90;;
34984;SDS011;21190;58.750;17.004;2023-12-20T01:19:16;16.23;;;2.03;;
34984;SDS011;21190;58.750;17.004;2023-12-20T01:21:43;10.48;;;1.52;;
34984;SDS011;21190;58.750;17.004;2023-12-20T01:24:10;10.18;;;1.60;;
34984;SDS011;21190;58.750;17.004;2023-12-20T01:26:37;16.17;;;2.75;;
34984;SDS011;21190;58.750;17.004;2023-12-20T01:29:04;9.85;;;2.08;;
34984;SDS011;21190;58.750;17.004;2023-12-20T01:31:31;13.98;;;2.50;;
34984;SDS011;21190;58.750;17.004;2023-12-20T01:33:59;12.18;;;3.30;;
34984;SDS011;21190;58.750;17.004;2023-12-20T01:36:26;17.77;;;2.33;;
34984;SDS011;21190;58.750;17.004;2023-12-20T01:38:53;17.75;;;1.95;;
34984;SDS011;21190;58.750;17.004;2023-12-20T01:41:20;10.15;;;1.77;;
34984;SDS011;21190;58.750;17.004;2023-12-20T01:43:48;34.97;;;2.50;;
34984;SDS011;21190;58.750;17.004;2023-12-20T01:46:17;9.48;;;1.60;;
34984;SDS011;21190;58.750;17.004;2023-12-20T01:48:47;17.38;;;2.67;;
34984;SDS011;21190;58.750;17.004;2023-12-20T01:51:15;10.25;;;1.92;;
34984;SDS011;21190;58.750;17.004;2023-12-20T01:53:43;21.17;;;3.50;;
34984;SDS011;21190;58.750;17.004;2023-12-20T01:56:11;9.93;;;1.80;;
34984;SDS011;21190;58.750;17.004;2023-12-20T01:58:39;9.48;;;1.65;;
34984;SDS011;21190;58.750;17.004;2023-12-20T02:01:12;14.23;;;3.40;;
34984;SDS011;21190;58.750;17.004;2023-12-20T02:03:40;11.10;;;2.08;;
34984;SDS011;21190;58.750;17.004;2023-12-20T02:06:08;9.55;;;2.17;;
34984;SDS011;21190;58.750;17.004;2023-12-20T02:08:36;9.10;;;1.67;;
34984;SDS011;21190;58.750;17.004;2023-12-20T02:11:03;15.20;;;2.10;;
34984;SDS011;21190;58.750;17.004;2023-12-20T02:13:31;14.73;;;1.80;;
34984;SDS011;21190;58.750;17.004;2023-12-20T02:15:58;9.48;;;2.40;;
34984;SDS011;21190;58.750;17.004;2023-12-20T02:18:25;17.38;;;2.35;;
34984;SDS011;21190;58.750;17.004;2023-12-20T02:20:53;13.73;;;2.47;;
34984;SDS011;21190;58.750;17.004;2023-12-20T02:23:20;14.35;;;2.90;;
34984;SDS011;21190;58.750;17.004;2023-12-20T02:25:47;12.90;;;2.65;;
34984;SDS011;21190;58.750;17.004;2023-12-20T02:28:14;10.07;;;1.75;;
34984;SDS011;21190;58.750;17.004;2023-12-20T02:30:42;10.77;;;2.20;;
34984;SDS011;21190;58.750;17.004;2023-12-20T02:33:10;9.85;;;2.20;;
34984;SDS011;21190;58.750;17.004;2023-12-20T02:35:40;11.90;;;2.35;;
34984;SDS011;21190;58.750;17.004;2023-12-20T02:38:07;14.98;;;2.30;;
34984;SDS011;21190;58.750;17.004;2023-12-20T02:40:34;19.42;;;2.45;;
34984;SDS011;21190;58.750;17.004;2023-12-20T02:43:01;12.70;;;2.75;;
34984;SDS011;21190;58.750;17.004;2023-12-20T02:45:29;11.63;;;1.90;;
34984;SDS011;21190;58.750;17.004;2023-12-20T02:47:56;10.93;;;1.73;;
34984;SDS011;21190;58.750;17.004;2023-12-20T02:50:23;14.65;;;1.85;;
34984;SDS011;21190;58.750;17.004;2023-12-20T02:52:51;11.55;;;2.90;;
34984;SDS011;21190;58.750;17.004;2023-12-20T02:55:18;16.95;;;1.80;;
34984;SDS011;21190;58.750;17.004;2023-12-20T02:57:45;5.50;;;1.50;;
34984;SDS011;21190;58.750;17.004;2023-12-20T03:00:12;10.50;;;2.00;;
34984;SDS011;21190;58.750;17.004;2023-12-20T03:02:40;11.77;;;2.20;;
34984;SDS011;21190;58.750;17.004;2023-12-20T03:05:07;8.02;;;1.38;;
34984;SDS011;21190;58.750;17.004;2023-12-20T03:07:36;20.25;;;1.80;;
34984;SDS011;21190;58.750;17.004;2023-12-20T03:10:04;20.05;;;2.75;;
34984;SDS011;21190;58.750;17.004;2023-12-20T03:12:45;11.45;;;2.08;;
34984;SDS011;21190;58.750;17.004;2023-12-20T03:15:13;10.25;;;2.28;;
34984;SDS011;21190;58.750;17.004;2023-12-20T03:17:40;14.50;;;2.47;;
34984;SDS011;21190;58.750;17.004;2023-12-20T03:20:08;18.60;;;4.28;;
34984;SDS011;21190;58.750;17.004;2023-12-20T03:22:35;21.33;;;2.80;;
34984;SDS011;21190;58.750;17.004;2023-12-20T03:25:02;9.88;;;2.42;;
34984;SDS011;21190;58.750;17.004;2023-12-20T03:27:29;10.30;;;2.47;;
34984;SDS011;21190;58.750;17.004;2023-12-20T03:29:56;7.85;;;2.10;;
34984;SDS011;21190;58.750;17.004;2023-12-20T03:32:23;15.73;;;2.97;;
34984;SDS011;21190;58.750;17.004;2023-12-20T03:34:51;16.25;;;2.05;;
34984;SDS011;21190;58.750;17.004;2023-12-20T03:37:18;8.07;;;1.98;;
34984;SDS011;21190;58.750;17.004;2023-12-20T03:39:45;15.32;;;2.65;;
34984;SDS011;21190;58.750;17.004;2023-12-20T03:42:13;11.18;;;2.20;;
34984;SDS011;21190;58.750;17.004;2023-12-20T03:44:40;11.68;;;2.85;;
34984;SDS011;21190;58.750;17.004;2023-12-20T03:47:07;15.80;;;2.25;;
34984;SDS011;21190;58.750;17.004;2023-12-20T03:49:34;10.45;;;3.25;;
34984;SDS011;21190;58.750;17.004;2023-12-20T03:52:04;10.13;;;2.00;;
34984;SDS011;21190;58.750;17.004;2023-12-20T03:54:31;13.20;;;2.50;;
34984;SDS011;21190;58.750;17.004;2023-12-20T03:56:59;8.63;;;2.22;;
34984;SDS011;21190;58.750;17.004;2023-12-20T03:59:26;13.73;;;2.00;;
34984;SDS011;21190;58.750;17.004;2023-12-20T04:01:53;9.80;;;2.00;;
34984;SDS011;21190;58.750;17.004;2023-12-20T04:04:20;16.00;;;2.58;;
34984;SDS011;21190;58.750;17.004;2023-12-20T04:06:48;7.05;;;1.88;;
34984;SDS011;21190;58.750;17.004;2023-12-20T04:09:16;12.52;;;2.30;;
34984;SDS011;21190;58.750;17.004;2023-12-20T04:11:43;20.20;;;2.95;;
34984;SDS011;21190;58.750;17.004;2023-12-20T04:14:11;7.93;;;2.97;;
34984;SDS011;21190;58.750;17.004;2023-12-20T04:16:38;14.50;;;4.40;;
34984;SDS011;21190;58.750;17.004;2023-12-20T04:19:05;13.40;;;3.47;;
34984;SDS011;21190;58.750;17.004;2023-12-20T04:21:33;14.65;;;2.95;;
34984;SDS011;21190;58.750;17.004;2023-12-20T04:24:00;18.80;;;3.00;;
34984;SDS011;21190;58.750;17.004;2023-12-20T04:26:27;8.57;;;1.98;;
34984;SDS011;21190;58.750;17.004;2023-12-20T04:28:54;17.75;;;3.03;;
34984;SDS011;21190;58.750;17.004;2023-12-20T04:31:21;14.07;;;2.40;;
34984;SDS011;21190;58.750;17.004;2023-12-20T04:33:48;14.02;;;2.60;;
34984;SDS011;21190;58.750;17.004;2023-12-20T04:36:16;8.65;;;2.05;;
34984;SDS011;21190;58.750;17.004;2023-12-20T04:38:43;11.80;;;2.90;;
34984;SDS011;21190;58.750;17.004;2023-12-20T04:41:10;7.55;;;1.58;;
34984;SDS011;21190;58.750;17.004;2023-12-20T04:43:37;22.77;;;2.72;;
34984;SDS011;21190;58.750;17.004;2023-12-20T04:46:04;15.77;;;2.13;;
34984;SDS011;21190;58.750;17.004;2023-12-20T04:48:32;10.50;;;1.63;;
34984;SDS011;21190;58.750;17.004;2023-12-20T04:50:59;9.40;;;1.60;;
34984;SDS011;21190;58.750;17.004;2023-12-20T04:53:26;10.55;;;1.40;;
34984;SDS011;21190;58.750;17.004;2023-12-20T04:55:53;12.52;;;2.35;;
34984;SDS011;21190;58.750;17.004;2023-12-20T04:58:21;11.35;;;2.08;;
34984;SDS011;21190;58.750;17.004;2023-12-20T05:00:48;12.75;;;1.73;;
34984;SDS011;21190;58.750;17.004;2023-12-20T05:03:15;8.40;;;1.80;;
34984;SDS011;21190;58.750;17.004;2023-12-20T05:05:42;18.75;;;2.22;;
34984;SDS011;21190;58.750;17.004;2023-12-20T05:08:09;15.88;;;2.00;;
34984;SDS011;21190;58.750;17.004;2023-12-20T05:10:37;10.43;;;1.55;;
34984;SDS011;21190;58.750;17.004;2023-12-20T05:13:04;8.43;;;1.30;;
34984;SDS011;21190;58.750;17.004;2023-12-20T05:15:31;9.40;;;2.15;;
34984;SDS011;21190;58.750;17.004;2023-12-20T05:17:58;8.27;;;1.48;;
34984;SDS011;21190;58.750;17.004;2023-12-20T05:20:25;7.68;;;1.17;;
34984;SDS011;21190;58.750;17.004;2023-12-20T05:22:53;9.75;;;2.17;;
34984;SDS011;21190;58.750;17.004;2023-12-20T05:25:20;8.90;;;1.05;;
34984;SDS011;21190;58.750;17.004;2023-12-20T05:27:47;6.30;;;1.48;;
34984;SDS011;21190;58.750;17.004;2023-12-20T05:30:15;13.70;;;2.22;;
34984;SDS011;21190;58.750;17.004;2023-12-20T05:32:42;11.55;;;2.45;;
34984;SDS011;21190;58.750;17.004;2023-12-20T05:35:09;8.38;;;1.50;;
34984;SDS011;21190;58.750;17.004;2023-12-20T05:37:37;13.40;;;1.88;;
34984;SDS011;21190;58.750;17.004;2023-12-20T05:40:04;11.43;;;1.83;;
34984;SDS011;21190;58.750;17.004;2023-12-20T05:42:32;14.15;;;1.92;;
34984;SDS011;21190;58.750;17.004;2023-12-20T05:44:59;6.38;;;1.25;;
34984;SDS011;21190;58.750;17.004;2023-12-20T05:47:26;7.45;;;1.75;;
34984;SDS011;21190;58.750;17.004;2023-12-20T05:49:53;12.15;;;2.10;;
34984;SDS011;21190;58.750;17.004;2023-12-20T05:52:21;7.80;;;1.88;;
34984;SDS011;21190;58.750;17.004;2023-12-20T05:54:48;13.52;;;1.45;;
34984;SDS011;21190;58.750;17.004;2023-12-20T05:57:15;9.50;;;1.52;;
34984;SDS011;21190;58.750;17.004;2023-12-20T05:59:43;6.63;;;1.40;;
34984;SDS011;21190;58.750;17.004;2023-12-20T06:02:10;13.00;;;1.50;;
34984;SDS011;21190;58.750;17.004;2023-12-20T06:04:37;12.38;;;1.88;;
34984;SDS011;21190;58.750;17.004;2023-12-20T06:07:11;9.15;;;1.83;;
34984;SDS011;21190;58.750;17.004;2023-12-20T06:09:39;7.43;;;1.40;;
34984;SDS011;21190;58.750;17.004;2023-12-20T06:12:06;7.15;;;1.52;;
34984;SDS011;21190;58.750;17.004;2023-12-20T06:14:34;6.53;;;1.30;;
34984;SDS011;21190;58.750;17.004;2023-12-20T06:17:02;12.57;;;1.92;;
34984;SDS011;21190;58.750;17.004;2023-12-20T06:19:29;11.30;;;1.58;;
34984;SDS011;21190;58.750;17.004;2023-12-20T06:21:56;9.07;;;1.92;;
34984;SDS011;21190;58.750;17.004;2023-12-20T06:24:23;6.70;;;1.55;;
34984;SDS011;21190;58.750;17.004;2023-12-20T06:26:54;11.88;;;1.55;;
34984;SDS011;21190;58.750;17.004;2023-12-20T06:29:22;9.32;;;1.60;;
34984;SDS011;21190;58.750;17.004;2023-12-20T06:31:49;7.07;;;1.80;;
34984;SDS011;21190;58.750;17.004;2023-12-20T06:34:16;9.80;;;2.15;;
34984;SDS011;21190;58.750;17.004;2023-12-20T06:36:43;9.68;;;1.75;;
34984;SDS011;21190;58.750;17.004;2023-12-20T06:39:11;13.40;;;2.40;;
34984;SDS011;21190;58.750;17.004;2023-12-20T06:41:39;8.93;;;2.45;;
34984;SDS011;21190;58.750;17.004;2023-12-20T06:44:06;9.63;;;2.53;;
34984;SDS011;21190;58.750;17.004;2023-12-20T06:46:33;12.02;;;1.80;;
34984;SDS011;21190;58.750;17.004;2023-12-20T06:49:00;5.63;;;1.38;;
34984;SDS011;21190;58.750;17.004;2023-12-20T06:51:28;9.45;;;1.65;;
34984;SDS011;21190;58.750;17.004;2023-12-20T06:53:55;9.82;;;1.77;;
34984;SDS011;21190;58.750;17.004;2023-12-20T06:56:22;10.50;;;1.05;;
34984;SDS011;21190;58.750;17.004;2023-12-20T06:58:49;13.65;;;1.95;;
34984;SDS011;21190;58.750;17.004;2023-12-20T07:01:16;18.02;;;2.13;;
34984;SDS011;21190;58.750;17.004;2023-12-20T07:03:44;11.93;;;1.67;;
34984;SDS011;21190;58.750;17.004;2023-12-20T07:06:11;8.10;;;1.45;;
34984;SDS011;21190;58.750;17.004;2023-12-20T07:08:39;12.13;;;1.63;;
34984;SDS011;21190;58.750;17.004;2023-12-20T07:11:06;8.63;;;1.92;;
34984;SDS011;21190;58.750;17.004;2023-12-20T07:13:33;10.73;;;1.65;;
34984;SDS011;21190;58.750;17.004;2023-12-20T07:16:01;7.22;;;1.80;;
34984;SDS011;21190;58.750;17.004;2023-12-20T07:18:28;10.88;;;1.50;;
34984;SDS011;21190;58.750;17.004;2023-12-20T07:20:55;10.00;;;2.47;;
34984;SDS011;21190;58.750;17.004;2023-12-20T07:23:23;10.43;;;2.13;;
34984;SDS011;21190;58.750;17.004;2023-12-20T07:25:50;11.15;;;1.77;;
34984;SDS011;21190;58.750;17.004;2023-12-20T07:28:17;10.18;;;1.75;;
34984;SDS011;21190;58.750;17.004;2023-12-20T07:30:44;5.53;;;1.40;;
34984;SDS011;21190;58.750;17.004;2023-12-20T07:33:11;5.88;;;1.25;;
34984;SDS011;21190;58.750;17.004;2023-12-20T07:35:39;11.88;;;1.92;;
34984;SDS011;21190;58.750;17.004;2023-12-20T07:38:06;7.18;;;1.10;;
34984;SDS011;21190;58.750;17.004;2023-12-20T07:40:33;14.27;;;1.65;;
34984;SDS011;21190;58.750;17.004;2023-12-20T07:43:00;13.93;;;1.42;;
34984;SDS011;21190;58.750;17.004;2023-12-20T07:45:27;12.68;;;1.65;;
34984;SDS011;21190;58.750;17.004;2023-12-20T07:47:54;14.55;;;1.65;;
34984;SDS011;21190;58.750;17.004;2023-12-20T07:50:21;17.88;;;2.25;;
34984;SDS011;21190;58.750;17.004;2023-12-20T07:52:49;7.68;;;1.30;;
34984;SDS011;21190;58.750;17.004;2023-12-20T07:55:16;6.63;;;1.95;;
34984;SDS011;21190;58.750;17.004;2023-12-20T07:57:43;15.35;;;1.75;;
34984;SDS011;21190;58.750;17.004;2023-12-20T08:00:11;6.38;;;1.33;;
34984;SDS011;21190;58.750;17.004;2023-12-20T08:02:38;4.07;;;1.08;;
34984;SDS011;21190;58.750;17.004;2023-12-20T08:05:05;4.82;;;0.82;;
34984;SDS011;21190;58.750;17.004;2023-12-20T08:07:32;3.50;;;0.80;;
34984;SDS011;21190;58.750;17.004;2023-12-20T08:10:00;6.45;;;1.13;;
34984;SDS011;21190;58.750;17.004;2023-12-20T08:12:27;7.22;;;1.63;;
34984;SDS011;21190;58.750;17.004;2023-12-20T08:14:54;11.10;;;2.08;;
34984;SDS011;21190;58.750;17.004;2023-12-20T08:17:21;14.02;;;1.80;;
34984;SDS011;21190;58.750;17.004;2023-12-20T08:19:49;6.50;;;1.00;;
34984;SDS011;21190;58.750;17.004;2023-12-20T08:22:17;4.80;;;1.20;;
34984;SDS011;21190;58.750;17.004;2023-12-20T08:24:44;12.93;;;0.82;;
34984;SDS011;21190;58.750;17.004;2023-12-20T08:27:11;4.95;;;1.13;;
34984;SDS011;21190;58.750;17.004;2023-12-20T08:29:38;6.18;;;1.00;;
34984;SDS011;21190;58.750;17.004;2023-12-20T08:32:05;5.15;;;0.95;;
34984;SDS011;21190;58.750;17.004;2023-12-20T08:34:33;9.05;;;1.00;;
34984;SDS011;21190;58.750;17.004;2023-12-20T08:37:00;9.88;;;2.40;;
34984;SDS011;21190;58.750;17.004;2023-12-20T08:39:27;9.48;;;1.33;;
34984;SDS011;21190;58.750;17.004;2023-12-20T08:41:56;10.90;;;2.17;;
34984;SDS011;21190;58.750;17.004;2023-12-20T08:44:23;5.80;;;1.20;;
34984;SDS011;21190;58.750;17.004;2023-12-20T08:46:50;10.88;;;2.35;;
34984;SDS011;21190;58.750;17.004;2023-12-20T08:49:17;11.73;;;1.90;;
34984;SDS011;21190;58.750;17.004;2023-12-20T08:51:45;6.90;;;1.48;;
34984;SDS011;21190;58.750;17.004;2023-12-20T08:54:12;12.32;;;1.38;;
34984;SDS011;21190;58.750;17.004;2023-12-20T08:56:39;5.35;;;1.00;;
34984;SDS011;21190;58.750;17.004;2023-12-20T08:59:06;15.57;;;2.33;;
34984;SDS011;21190;58.750;17.004;2023-12-20T09:01:34;6.57;;;1.85;;
34984;SDS011;21190;58.750;17.004;2023-12-20T09:04:01;5.45;;;1.20;;
34984;SDS011;21190;58.750;17.004;2023-12-20T09:06:28;9.23;;;1.65;;
34984;SDS011;21190;58.750;17.004;2023-12-20T09:08:56;9.90;;;1.85;;
34984;SDS011;21190;58.750;17.004;2023-12-20T09:11:23;9.07;;;1.48;;
34984;SDS011;21190;58.750;17.004;2023-12-20T09:13:50;12.52;;;1.15;;
34984;SDS011;21190;58.750;17.004;2023-12-20T09:16:17;10.02;;;1.83;;
34984;SDS011;21190;58.750;17.004;2023-12-20T09:18:44;14.93;;;1.60;;
34984;SDS011;21190;58.750;17.004;2023-12-20T09:21:12;14.73;;;2.08;;
34984;SDS011;21190;58.750;17.004;2023-12-20T09:23:39;6.28;;;1.17;;
34984;SDS011;21190;58.750;17.004;2023-12-20T09:26:06;14.30;;;1.48;;
34984;SDS011;21190;58.750;17.004;2023-12-20T09:28:33;9.38;;;1.85;;
34984;SDS011;21190;58.750;17.004;2023-12-20T09:31:04;8.30;;;1.80;;
34984;SDS011;21190;58.750;17.004;2023-12-20T09:33:32;9.55;;;1.38;;
34984;SDS011;21190;58.750;17.004;2023-12-20T09:36:00;13.18;;;1.70;;
34984;SDS011;21190;58.750;17.004;2023-12-20T09:38:27;7.50;;;1.42;;
34984;SDS011;21190;58.750;17.004;2023-12-20T09:40:55;10.10;;;2.28;;
34984;SDS011;21190;58.750;17.004;2023-12-20T09:43:23;14.40;;;1.90;;
34984;SDS011;21190;58.750;17.004;2023-12-20T09:45:53;10.57;;;2.50;;
34984;SDS011;21190;58.750;17.004;2023-12-20T09:48:20;8.02;;;1.73;;
34984;SDS011;21190;58.750;17.004;2023-12-20T09:50:48;9.40;;;1.27;;
34984;SDS011;21190;58.750;17.004;2023-12-20T09:53:19;7.90;;;1.40;;
34984;SDS011;21190;58.750;17.004;2023-12-20T09:55:50;10.00;;;2.75;;
34984;SDS011;21190;58.750;17.004;2023-12-20T09:58:19;11.77;;;2.28;;
34984;SDS011;21190;58.750;17.004;2023-12-20T10:00:46;5.30;;;1.30;;
34984;SDS011;21190;58.750;17.004;2023-12-20T10:03:14;10.35;;;1.90;;
34984;SDS011;21190;58.750;17.004;2023-12-20T10:05:42;8.00;;;1.10;;
34984;SDS011;21190;58.750;17.004;2023-12-20T10:08:11;10.65;;;1.10;;
34984;SDS011;21190;58.750;17.004;2023-12-20T10:10:38;9.90;;;2.05;;
34984;SDS011;21190;58.750;17.004;2023-12-20T10:13:13;5.72;;;2.28;;
34984;SDS011;21190;58.750;17.004;2023-12-20T10:15:42;9.48;;;1.42;;
34984;SDS011;21190;58.750;17.004;2023-12-20T10:18:11;8.95;;;1.40;;
34984;SDS011;21190;58.750;17.004;2023-12-20T10:20:40;15.75;;;1.60;;
34984;SDS011;21190;58.750;17.004;2023-12-20T10:23:08;8.82;;;1.20;;
34984;SDS011;21190;58.750;17.004;2023-12-20T10:25:36;7.63;;;1.00;;
34984;SDS011;21190;58.750;17.004;2023-12-20T10:28:16;8.10;;;1.20;;
34984;SDS011;21190;58.750;17.004;2023-12-20T10:30:50;4.93;;;1.13;;
34984;SDS011;21190;58.750;17.004;2023-12-20T10:33:27;11.05;;;1.38;;
34984;SDS011;21190;58.750;17.004;2023-12-20T10:35:55;13.50;;;1.70;;
34984;SDS011;21190;58.750;17.004;2023-12-20T10:38:23;8.45;;;1.33;;
34984;SDS011;21190;58.750;17.004;2023-12-20T10:40:53;7.88;;;1.60;;
34984;SDS011;21190;58.750;17.004;2023-12-20T10:43:24;7.32;;;1.17;;
34984;SDS011;21190;58.750;17.004;2023-12-20T10:45:53;3.20;;;0.90;;
34984;SDS011;21190;58.750;17.004;2023-12-20T10:48:21;7.40;;;1.38;;
34984;SDS011;21190;58.750;17.004;2023-12-20T10:50:54;12.32;;;1.70;;
34984;SDS011;21190;58.750;17.004;2023-12-20T10:53:23;23.90;;;2.30;;
34984;SDS011;21190;58.750;17.004;2023-12-20T10:55:52;12.75;;;1.27;;
34984;SDS011;21190;58.750;17.004;2023-12-20T10:58:22;9.30;;;2.53;;
34984;SDS011;21190;58.750;17.004;2023-12-20T11:00:54;5.03;;;1.02;;
34984;SDS011;21190;58.750;17.004;2023-12-20T11:03:26;11.30;;;1.58;;
34984;SDS011;21190;58.750;17.004;2023-12-20T11:06:03;6.00;;;1.05;;
34984;SDS011;21190;58.750;17.004;2023-12-20T11:08:40;6.28;;;1.10;;
34984;SDS011;21190;58.750;17.004;2023-12-20T11:16:40;6.50;;;1.00;;
34984;SDS011;21190;58.750;17.004;2023-12-20T11:19:20;6.55;;;1.58;;
34984;SDS011;21190;58.750;17.004;2023-12-20T11:21:47;9.50;;;1.20;;
34984;SDS011;21190;58.750;17.004;2023-12-20T11:24:15;16.33;;;1.40;;
34984;SDS011;21190;58.750;17.004;2023-12-20T11:26:46;10.65;;;1.83;;
34984;SDS011;21190;58.750;17.004;2023-12-20T11:29:31;4.22;;;1.13;;
34984;SDS011;21190;58.750;17.004;2023-12-20T11:32:04;8.25;;;1.00;;
34984;SDS011;21190;58.750;17.004;2023-12-20T11:37:30;7.50;;;1.05;;
34984;SDS011;21190;58.750;17.004;2023-12-20T11:40:03;6.72;;;0.98;;
34984;SDS011;21190;58.750;17.004;2023-12-20T11:42:41;4.85;;;1.20;;
34984;SDS011;21190;58.750;17.004;2023-12-20T11:45:16;6.88;;;1.23;;
34984;SDS011;21190;58.750;17.004;2023-12-20T11:47:49;5.85;;;0.90;;
34984;SDS011;21190;58.750;17.004;2023-12-20T11:50:17;7.30;;;1.00;;
34984;SDS011;21190;58.750;17.004;2023-12-20T11:52:46;4.53;;;0.88;;
34984;SDS011;21190;58.750;17.004;2023-12-20T11:55:13;3.55;;;1.10;;
34984;SDS011;21190;58.750;17.004;2023-12-20T11:57:41;7.95;;;1.38;;
34984;SDS011;21190;58.750;17.004;2023-12-20T12:00:09;8.68;;;0.90;;
34984;SDS011;21190;58.750;17.004;2023-12-20T12:02:37;3.95;;;0.93;;
34984;SDS011;21190;58.750;17.004;2023-12-20T12:05:04;5.15;;;1.08;;
34984;SDS011;21190;58.750;17.004;2023-12-20T12:07:33;5.10;;;1.15;;
34984;SDS011;21190;58.750;17.004;2023-12-20T12:10:01;3.75;;;1.02;;
34984;SDS011;21190;58.750;17.004;2023-12-20T12:12:30;3.60;;;1.00;;
34984;SDS011;21190;58.750;17.004;2023-12-20T12:14:59;4.35;;;1.20;;
34984;SDS011;21190;58.750;17.004;2023-12-20T12:17:26;2.72;;;0.88;;
34984;SDS011;21190;58.750;17.004;2023-12-20T12:20:01;4.78;;;0.88;;
34984;SDS011;21190;58.750;17.004;2023-12-20T12:22:33;3.60;;;1.02;;
34984;SDS011;21190;58.750;17.004;2023-12-20T12:25:20;4.07;;;1.15;;
34984;SDS011;21190;58.750;17.004;2023-12-20T12:27:50;6.45;;;0.90;;
34984;SDS011;21190;58.750;17.004;2023-12-20T12:30:18;5.50;;;1.58;;
34984;SDS011;21190;58.750;17.004;2023-12-20T12:32:45;6.10;;;1.05;;
34984;SDS011;21190;58.750;17.004;2023-12-20T12:35:13;5.93;;;1.27;;
34984;SDS011;21190;58.750;17.004;2023-12-20T12:37:41;3.85;;;0.90;;
34984;SDS011;21190;58.750;17.004;2023-12-20T12:40:12;4.10;;;1.15;;
34984;SDS011;21190;58.750;17.004;2023-12-20T12:42:41;6.60;;;1.02;;
34984;SDS011;21190;58.750;17.004;2023-12-20T12:45:10;6.60;;;1.10;;
34984;SDS011;21190;58.750;17.004;2023-12-20T12:47:41;4.47;;;1.02;;
34984;SDS011;21190;58.750;17.004;2023-12-20T12:50:08;5.93;;;0.70;;
34984;SDS011;21190;58.750;17.004;2023-12-20T12:52:36;3.88;;;0.68;;
34984;SDS011;21190;58.750;17.004;2023-12-20T12:55:04;4.18;;;0.60;;
34984;SDS011;21190;58.750;17.004;2023-12-20T12:57:32;5.47;;;0.70;;
34984;SDS011;21190;58.750;17.004;2023-12-20T13:00:00;5.60;;;1.30;;
34984;SDS011;21190;58.750;17.004;2023-12-20T13:02:29;5.03;;;0.57;;
34984;SDS011;21190;58.750;17.004;2023-12-20T13:04:57;4.10;;;1.02;;
34984;SDS011;21190;58.750;17.004;2023-12-20T13:07:24;4.00;;;0.73;;
34984;SDS011;21190;58.750;17.004;2023-12-20T13:09:51;2.47;;;0.63;;
34984;SDS011;21190;58.750;17.004;2023-12-20T13:12:19;7.20;;;0.77;;
34984;SDS011;21190;58.750;17.004;2023-12-20T13:14:46;4.63;;;1.17;;
34984;SDS011;21190;58.750;17.004;2023-12-20T13:17:13;6.28;;;0.70;;
34984;SDS011;21190;58.750;17.004;2023-12-20T13:19:42;6.30;;;0.70;;
34984;SDS011;21190;58.750;17.004;2023-12-20T13:22:09;5.32;;;0.73;;
34984;SDS011;21190;58.750;17.004;2023-12-20T13:24:36;3.50;;;0.80;;
34984;SDS011;21190;58.750;17.004;2023-12-20T13:27:04;4.75;;;0.88;;
34984;SDS011;21190;58.750;17.004;2023-12-20T13:29:31;2.13;;;0.80;;
34984;SDS011;21190;58.750;17.004;2023-12-20T13:31:58;2.10;;;0.50;;
34984;SDS011;21190;58.750;17.004;2023-12-20T13:34:26;4.93;;;0.75;;
34984;SDS011;21190;58.750;17.004;2023-12-20T13:36:53;4.10;;;0.80;;
34984;SDS011;21190;58.750;17.004;2023-12-20T13:39:20;5.18;;;1.00;;
34984;SDS011;21190;58.750;17.004;2023-12-20T13:41:48;3.15;;;0.40;;
34984;SDS011;21190;58.750;17.004;2023-12-20T13:44:15;3.97;;;0.90;;
34984;SDS011;21190;58.750;17.004;2023-12-20T13:46:42;5.25;;;1.58;;
34984;SDS011;21190;58.750;17.004;2023-12-20T13:49:09;6.80;;;1.52;;
34984;SDS011;21190;58.750;17.004;2023-12-20T13:51:36;2.25;;;0.60;;
34984;SDS011;21190;58.750;17.004;2023-12-20T13:54:04;4.60;;;0.70;;
34984;SDS011;21190;58.750;17.004;2023-12-20T13:56:31;7.13;;;1.45;;
34984;SDS011;21190;58.750;17.004;2023-12-20T13:59:12;2.05;;;0.73;;
34984;SDS011;21190;58.750;17.004;2023-12-20T14:01:40;3.55;;;1.55;;
34984;SDS011;21190;58.750;17.004;2023-12-20T14:04:07;4.20;;;1.00;;
34984;SDS011;21190;58.750;17.004;2023-12-20T14:06:34;11.90;;;1.80;;
34984;SDS011;21190;58.750;17.004;2023-12-20T14:09:02;3.88;;;1.10;;
34984;SDS011;21190;58.750;17.004;2023-12-20T14:11:29;9.40;;;1.40;;
34984;SDS011;21190;58.750;17.004;2023-12-20T14:13:56;7.10;;;1.25;;
34984;SDS011;21190;58.750;17.004;2023-12-20T14:16:24;2.22;;;0.98;;
34984;SDS011;21190;58.750;17.004;2023-12-20T14:18:52;5.40;;;1.13;;
34984;SDS011;21190;58.750;17.004;2023-12-20T14:21:22;3.28;;;1.00;;
34984;SDS011;21190;58.750;17.004;2023-12-20T14:23:50;5.20;;;1.10;;
34984;SDS011;21190;58.750;17.004;2023-12-20T14:26:18;5.80;;;0.90;;
34984;SDS011;21190;58.750;17.004;2023-12-20T14:28:45;4.28;;;1.10;;
34984;SDS011;21190;58.750;17.004;2023-12-20T14:31:12;4.65;;;1.05;;
34984;SDS011;21190;58.750;17.004;2023-12-20T14:33:40;7.53;;;1.60;;
34984;SDS011;21190;58.750;17.004;2023-12-20T14:36:08;6.47;;;1.23;;
34984;SDS011;21190;58.750;17.004;2023-12-20T14:38:36;6.82;;;1.42;;
34984;SDS011;21190;58.750;17.004;2023-12-20T14:41:03;8.40;;;2.15;;